Airfield :
LOGIN :

Register | Disclaimer

   EN    FR    IT 

 










Legend :    VFR   Marginal VFR   IFR   Intensive IFR   Very Intensive IFR
Visi :
Ceiling :
>= 8 km
>= 3000ft
5 to 8 km
1000 to 3000 ft
1500m to 5 km
500 to 1000 ft
800 to 1500m
200 to 500 ft
< 800m
< 200 ft
Symbols :   Thunderstorms  Fog  Heavy snow  Heavy precipitations  Wind > 20 kt
SIGMETs :     Misc.  Thunderstorms  Icing  Turbulence  Mountain Waves  Volcanic Ashes







- Airport Elevation : 755 ft
- IATA code : DRS


EDDC - Dresden Klotzsche

CURRENT METAR :
  • 151050Z 17015KT 140V200 CAVOK 19/01 Q1016 TEMPO 16015G25KT

EXPIRED METARs :
  • 151020Z 16014KT CAVOK 18/00 Q1016 TEMPO 16015G25KT
  • 150950Z 17016KT CAVOK 18/01 Q1016 TEMPO 16015G25KT
  • 150920Z 17014KT 140V200 CAVOK 18/00 Q1016 TEMPO 16015G25KT
  • 150850Z 17018KT CAVOK 18/01 Q1016 TEMPO 16020G30KT
  • 150820Z 16016KT 140V200 CAVOK 17/01 Q1016 TEMPO 16020G30KT
  • 150750Z 16018KT CAVOK 17/01 Q1016 TEMPO 16020G30KT

TAF AMD TAF EDDC
Valid from the 15 at 07:00 until the 16 at 06:00 UTC


150725Z 1507/1606 15012G22KT CAVOK
TEMPO 1507/1513 15020G30KT
BECMG 1515/1518 15007KT
No reported NOTAMs for that airfield.



MET'MAP, your aeronautical weather chart ! - Copyright ORBIFLY December 2007 - Disclaimer

ORBIFLY MET'MAP TEAM :

Programming & Development : Alexandra Zaïnal
Concept & Development : Baudouin d'Aumeries
Co-Development & Prog : Marc-Olivier Méhu
Technical & hardware support : Manuel Goepfert

Contact : metmap@orbifly.com




SOURCES & CREDITS :

   NOAA